Time;durP1;ratioP1;P1;durP2;ratioP2;P2;SDS_P1;SDS_P2;PMS_P1;PMS_P2;Temp;Humidity;BMP_temperature;BMP_pressure;BME280_temperature;BME280_humidity;BME280_pressure;Samples;Min_cycle;Max_cycle;Signal;HPM_P1;HPM_P2
2023/02/07 00:00:20;;;;;;;3.78;1.45;;;;;;;-1.80;65.00;98373.28;4966817;28;20142;-54
2023/02/07 00:02:48;;;;;;;0.82;0.82;;;;;;;-1.95;66.82;98384.00;4966918;28;20046;-56
2023/02/07 00:05:15;;;;;;;15.95;1.75;;;;;;;-1.99;68.35;98396.44;4967075;28;20138;-55
2023/02/07 00:07:41;;;;;;;3.72;1.55;;;;;;;-2.40;68.28;98361.03;4982990;28;20426;-54
2023/02/07 00:10:08;;;;;;;0.90;0.88;;;;;;;-2.35;68.70;98375.47;4986270;28;20050;-57
2023/02/07 00:12:35;;;;;;;0.35;0.35;;;;;;;-2.25;68.51;98381.00;4985942;28;20518;-54
2023/02/07 00:15:03;;;;;;;2.20;1.10;;;;;;;-2.44;68.13;98349.03;4985075;28;20517;-57
2023/02/07 00:17:30;;;;;;;0.20;0.20;;;;;;;-2.10;67.61;98383.84;4986267;28;20139;-56
2023/02/07 00:19:57;;;;;;;1.70;1.17;;;;;;;-2.26;68.65;98373.91;4984480;28;20054;-55
2023/02/07 00:22:24;;;;;;;2.08;0.95;;;;;;;-2.12;68.15;98369.72;4986829;28;20153;-55
2023/02/07 00:24:50;;;;;;;2.22;0.73;;;;;;;-2.48;67.84;98337.88;4967175;28;20062;-57
2023/02/07 00:27:17;;;;;;;0.40;0.40;;;;;;;-2.23;68.69;98373.41;4967040;28;20117;-57
2023/02/07 00:29:44;;;;;;;1.85;0.88;;;;;;;-2.66;68.30;98324.69;4966977;28;20118;-57
2023/02/07 00:32:10;;;;;;;0.30;0.30;;;;;;;-2.12;67.58;98393.34;4966568;28;20066;-57
2023/02/07 00:34:37;;;;;;;0.20;0.20;;;;;;;-2.11;67.40;98360.50;4970464;28;20050;-57
2023/02/07 00:37:05;;;;;;;0.35;0.35;;;;;;;-1.91;66.80;98376.16;4820865;28;5001465;-57
2023/02/07 00:39:32;;;;;;;1.10;0.98;;;;;;;-2.20;68.59;98378.34;4966826;28;20506;-55
2023/02/07 00:41:58;;;;;;;0.25;0.25;;;;;;;-2.02;68.46;98383.38;4966518;28;20078;-54
2023/02/07 00:44:26;;;;;;;0.22;0.22;;;;;;;-2.58;68.61;98283.56;4966458;28;20061;-57
2023/02/07 00:46:52;;;;;;;0.32;0.32;;;;;;;-1.85;68.53;98388.72;4966529;28;20058;-57
2023/02/07 00:49:19;;;;;;;0.30;0.30;;;;;;;-1.91;68.12;98387.84;4966143;28;20090;-54
2023/02/07 00:51:46;;;;;;;0.20;0.20;;;;;;;-1.67;67.22;98389.13;4965091;28;20097;-55
2023/02/07 00:54:12;;;;;;;0.20;0.20;;;;;;;-1.60;67.12;98389.72;4966366;28;20137;-57
2023/02/07 00:56:39;;;;;;;0.30;0.30;;;;;;;-1.47;67.09;98395.81;4966023;28;20110;-54
2023/02/07 00:59:06;;;;;;;0.22;0.22;;;;;;;-1.85;67.39;98316.19;4966458;28;20689;-57
2023/02/07 01:01:32;;;;;;;0.22;0.22;;;;;;;-1.41;68.25;98375.75;4965687;28;20054;-55
2023/02/07 01:03:59;;;;;;;0.30;0.30;;;;;;;-1.39;66.83;98373.59;4965457;28;20145;-57
2023/02/07 01:06:27;;;;;;;0.30;0.30;;;;;;;-1.52;66.51;98330.56;4965024;28;20113;-57
2023/02/07 01:08:57;;;;;;;0.20;0.20;;;;;;;-1.39;66.32;98373.59;4964285;28;20110;-56
2023/02/07 01:11:25;;;;;;;1.10;1.10;;;;;;;-1.57;66.03;98325.94;4961463;28;20065;-57
2023/02/07 01:13:52;;;;;;;3.53;0.70;;;;;;;-1.01;66.44;98389.59;4964049;28;20058;-55
2023/02/07 01:16:21;;;;;;;1.02;0.95;;;;;;;-1.59;66.67;98306.34;4966117;28;20117;-54
2023/02/07 01:18:48;;;;;;;0.35;0.35;;;;;;;-1.53;69.73;98361.53;4964709;28;20082;-58
2023/02/07 01:21:16;;;;;;;0.38;0.38;;;;;;;-1.43;71.28;98394.19;4964820;28;20086;-55
2023/02/07 01:23:43;;;;;;;2.53;0.85;;;;;;;-2.08;72.64;98303.00;4964735;28;20604;-54
2023/02/07 01:26:10;;;;;;;0.30;0.30;;;;;;;-1.66;73.43;98389.97;4964623;28;20094;-57
2023/02/07 01:28:36;;;;;;;1.17;1.15;;;;;;;-1.51;74.29;98392.78;4965580;28;20058;-57
2023/02/07 01:31:09;;;;;;;0.30;0.30;;;;;;;-1.48;74.69;98386.00;4965772;28;20085;-54
2023/02/07 01:33:37;;;;;;;0.40;0.40;;;;;;;-1.57;75.40;98369.38;4965652;28;20197;-54
2023/02/07 01:36:13;;;;;;;0.40;0.40;;;;;;;-1.34;77.71;98381.78;4966013;28;20050;-57
2023/02/07 01:38:40;;;;;;;0.63;0.63;;;;;;;-1.60;77.52;98350.91;4964077;28;20063;-56
2023/02/07 01:41:08;;;;;;;0.40;0.40;;;;;;;-1.41;77.63;98382.00;4965319;28;20054;-54
2023/02/07 01:43:52;;;;;;;0.30;0.30;;;;;;;-1.33;77.19;98372.53;4965578;28;20473;-56
2023/02/07 01:46:19;;;;;;;3.15;0.85;;;;;;;-1.50;75.80;98374.59;4965497;28;20102;-56
2023/02/07 01:48:46;;;;;;;0.30;0.30;;;;;;;-1.64;75.52;98388.63;4965569;28;20093;-55
2023/02/07 01:51:13;;;;;;;2.25;0.75;;;;;;;-1.70;75.10;98373.38;4965474;28;20544;-57
2023/02/07 01:53:41;;;;;;;1.75;1.27;;;;;;;-1.83;73.80;98379.22;4965002;28;20595;-56
2023/02/07 01:56:12;;;;;;;0.57;0.57;;;;;;;-2.11;74.24;98371.38;4965102;28;20126;-53
2023/02/07 01:58:56;;;;;;;0.85;0.85;;;;;;;-2.57;76.29;98325.84;4965138;28;20588;-57
2023/02/07 02:01:24;;;;;;;0.70;0.70;;;;;;;-2.08;75.86;98376.28;4965221;28;20495;-55
2023/02/07 02:03:54;;;;;;;0.75;0.75;;;;;;;-2.21;74.84;98333.28;4965471;28;20062;-54
2023/02/07 02:06:24;;;;;;;7.78;2.47;;;;;;;-2.41;74.00;98373.78;4965244;28;20063;-54
2023/02/07 02:08:56;;;;;;;0.80;0.60;;;;;;;-2.26;72.84;98373.91;4965257;28;20549;-56
2023/02/07 02:11:35;;;;;;;0.30;0.30;;;;;;;-2.13;72.40;98372.69;4965107;28;20496;-57
2023/02/07 02:14:23;;;;;;;0.43;0.43;;;;;;;-2.04;70.29;98382.81;4964712;28;20055;-53
2023/02/07 02:17:05;;;;;;;1.38;1.27;;;;;;;-2.17;71.23;98385.16;4964833;28;20137;-57
2023/02/07 02:20:00;;;;;;;0.65;0.50;;;;;;;-2.20;69.68;98383.78;4965259;28;20050;-55
2023/02/07 02:22:58;;;;;;;1.05;1.05;;;;;;;-2.05;70.58;98381.19;4965324;28;20085;-56
2023/02/07 02:26:07;;;;;;;0.50;0.50;;;;;;;-1.95;70.03;98386.72;4965581;28;20059;-56
2023/02/07 02:29:11;;;;;;;0.90;0.90;;;;;;;-2.22;71.24;98385.91;4965133;28;20093;-55
2023/02/07 02:31:40;;;;;;;0.40;0.40;;;;;;;-2.14;69.09;98381.91;4965063;28;20105;-55
2023/02/07 02:34:19;;;;;;;1.42;1.42;;;;;;;-1.95;68.06;98391.31;4965291;28;20133;-56
2023/02/07 02:37:16;;;;;;;8.27;2.47;;;;;;;-1.94;66.51;98382.09;4964897;28;20085;-55
2023/02/07 02:39:55;;;;;;;1.75;1.75;;;;;;;-1.92;65.91;98380.78;4962849;28;20513;-56
2023/02/07 02:42:39;;;;;;;0.30;0.30;;;;;;;-1.95;66.15;98386.72;4963804;28;20077;-58
2023/02/07 02:45:22;;;;;;;1.17;1.08;;;;;;;-2.04;66.49;98390.97;4964679;28;20051;-53
2023/02/07 02:47:50;;;;;;;5.03;1.00;;;;;;;-2.14;66.09;98363.75;4964672;28;20141;-57
2023/02/07 02:50:23;;;;;;;0.88;0.80;;;;;;;-2.07;65.69;98388.75;4964758;28;20050;-58
2023/02/07 02:52:49;;;;;;;0.85;0.82;;;;;;;-2.11;67.08;98381.41;4964569;28;20663;-54
2023/02/07 02:55:39;;;;;;;1.60;1.50;;;;;;;-2.07;66.09;98386.06;4963354;28;20097;-53
2023/02/07 02:58:37;;;;;;;0.43;0.43;;;;;;;-2.07;66.21;98394.19;4964967;28;20337;-53
2023/02/07 03:01:18;;;;;;;1.05;0.93;;;;;;;-2.14;66.29;98393.59;4964426;28;20150;-54
2023/02/07 03:04:03;;;;;;;0.30;0.30;;;;;;;-2.08;66.37;98397.16;4964821;28;20051;-56
2023/02/07 03:06:45;;;;;;;2.40;1.67;;;;;;;-2.55;66.96;98331.84;4964555;28;20145;-57
2023/02/07 03:09:47;;;;;;;1.50;1.03;;;;;;;-2.18;67.95;98397.88;4968119;28;20077;-53
2023/02/07 03:12:22;;;;;;;0.77;0.77;;;;;;;-2.48;67.19;98343.31;4968249;28;20489;-56
2023/02/07 03:15:04;;;;;;;5.88;1.63;;;;;;;-2.09;67.01;98390.09;4967974;28;20141;-53
2023/02/07 03:17:44;;;;;;;0.43;0.43;;;;;;;-2.11;67.79;98403.94;4966922;28;20103;-57
2023/02/07 03:20:21;;;;;;;2.00;1.90;;;;;;;-2.10;68.68;98393.88;4968229;28;20059;-55
2023/02/07 03:22:50;;;;;;;0.30;0.30;;;;;;;-2.19;68.28;98407.09;4968209;28;20054;-54
2023/02/07 03:25:20;;;;;;;11.27;2.28;;;;;;;-2.45;70.03;98402.47;4967528;28;20105;-56
2023/02/07 03:27:48;;;;;;;3.15;1.55;;;;;;;-2.91;69.60;98310.84;4968340;28;20073;-57
2023/02/07 03:30:19;;;;;;;8.45;2.83;;;;;;;-2.74;69.59;98371.22;4966515;28;20065;-57
2023/02/07 03:32:54;;;;;;;0.43;0.43;;;;;;;-3.01;69.72;98332.41;4968096;28;20137;-57
2023/02/07 03:35:27;;;;;;;3.80;1.40;;;;;;;-2.67;69.37;98404.38;4967516;28;20443;-57
2023/02/07 03:37:58;;;;;;;;;;;;;;;-2.67;67.71;98390.00;4967067;28;20069;-52
2023/02/07 03:40:28;;;;;;;1.17;0.95;;;;;;;-3.13;67.24;98323.59;4967896;28;19988;-57
2023/02/07 03:43:03;;;;;;;4.50;0.50;;;;;;;-2.73;66.25;98391.00;4967751;28;20569;-52
2023/02/07 03:45:30;;;;;;;2.95;0.90;;;;;;;-2.48;66.30;98400.25;4966343;28;20619;-56
2023/02/07 03:47:57;;;;;;;1.52;0.57;;;;;;;-2.50;65.95;98383.44;4968178;28;20121;-56
2023/02/07 03:50:23;;;;;;;3.20;0.85;;;;;;;-2.79;67.15;98356.78;4966303;28;20506;-57
2023/02/07 03:52:50;;;;;;;4.43;2.20;;;;;;;-2.45;66.24;98397.03;4967954;28;20105;-57
2023/02/07 03:55:17;;;;;;;0.30;0.30;;;;;;;-2.51;65.31;98408.91;4967564;28;20157;-56
2023/02/07 03:57:44;;;;;;;3.42;0.90;;;;;;;-2.76;65.79;98345.41;4967647;28;20077;-56
2023/02/07 04:00:11;;;;;;;2.33;0.75;;;;;;;-2.33;65.49;98408.59;4949115;28;20079;-55
2023/02/07 04:02:39;;;;;;;0.30;0.30;;;;;;;-2.28;65.56;98405.94;4947793;28;20055;-57
2023/02/07 04:05:06;;;;;;;4.40;2.53;;;;;;;-2.59;64.68;98379.53;4947659;28;20126;-54
2023/02/07 04:07:33;;;;;;;5.05;1.75;;;;;;;-2.49;65.74;98400.53;4948083;29;20109;-53
2023/02/07 04:09:59;;;;;;;0.30;0.30;;;;;;;-2.75;65.64;98345.16;4947900;29;20051;-54
2023/02/07 04:12:31;;;;;;;0.30;0.30;;;;;;;-2.21;65.33;98409.25;4947362;28;20059;-56
2023/02/07 04:14:59;;;;;;;2.70;1.08;;;;;;;-2.42;65.40;98410.09;4947965;28;20062;-53
2023/02/07 04:17:26;;;;;;;5.88;2.38;;;;;;;-2.35;65.74;98418.88;4945938;29;20106;-56
2023/02/07 04:19:56;;;;;;;1.75;0.98;;;;;;;-2.55;64.62;98345.41;4945856;28;20499;-57
2023/02/07 04:22:22;;;;;;;0.30;0.30;;;;;;;-2.11;64.20;98420.22;4947634;28;20059;-54
2023/02/07 04:24:49;;;;;;;0.30;0.30;;;;;;;-2.84;64.14;98300.63;4948223;29;20086;-58
2023/02/07 04:27:16;;;;;;;4.00;1.75;;;;;;;-2.34;65.55;98415.06;4953726;28;20137;-57
2023/02/07 04:29:43;;;;;;;0.85;0.85;;;;;;;-2.53;64.98;98392.06;4967156;28;20586;-53
2023/02/07 04:32:09;;;;;;;0.95;0.93;;;;;;;-2.34;65.53;98414.28;4966421;28;20085;-57
2023/02/07 04:34:36;;;;;;;0.90;0.90;;;;;;;-2.46;66.07;98446.94;4965488;28;20074;-54
2023/02/07 04:37:03;;;;;;;0.55;0.55;;;;;;;-2.55;66.87;98398.81;4966543;28;20063;-55
2023/02/07 04:39:29;;;;;;;2.15;1.88;;;;;;;-2.42;66.14;98429.09;4967042;28;20059;-57
2023/02/07 04:41:56;;;;;;;0.40;0.40;;;;;;;-2.37;66.56;98423.72;4966512;28;20494;-54
2023/02/07 04:44:22;;;;;;;2.33;0.68;;;;;;;-2.38;66.89;98426.69;4966956;28;20226;-57
2023/02/07 04:46:49;;;;;;;1.17;1.15;;;;;;;-2.63;67.28;98400.09;4966993;28;20117;-54
2023/02/07 04:49:16;;;;;;;0.30;0.30;;;;;;;-2.87;67.21;98377.03;4967157;28;20047;-57
2023/02/07 04:51:42;;;;;;;0.30;0.30;;;;;;;-2.33;66.76;98433.00;4966232;28;20054;-57
2023/02/07 04:54:10;;;;;;;4.25;1.70;;;;;;;-2.61;66.87;98419.66;4966512;28;20090;-56
2023/02/07 04:56:36;;;;;;;1.45;0.52;;;;;;;-2.66;67.33;98438.56;4965795;28;20553;-56
2023/02/07 04:59:03;;;;;;;0.30;0.30;;;;;;;-2.46;67.08;98432.56;4966558;28;20055;-54
2023/02/07 05:01:30;;;;;;;0.32;0.32;;;;;;;-3.01;67.07;98359.50;4965741;28;20094;-56
2023/02/07 05:03:56;;;;;;;0.32;0.32;;;;;;;-2.44;67.19;98447.53;4965010;28;20553;-57
2023/02/07 05:06:23;;;;;;;3.13;1.77;;;;;;;-2.65;67.94;98451.06;4965659;28;20102;-53
2023/02/07 05:08:50;;;;;;;0.75;0.75;;;;;;;-2.80;67.98;98431.06;4966326;28;20166;-54
2023/02/07 05:11:17;;;;;;;5.10;2.35;;;;;;;-2.67;69.09;98463.22;4966150;28;20659;-56
2023/02/07 05:13:44;;;;;;;0.40;0.40;;;;;;;-2.78;71.72;98462.25;4964563;28;20529;-54
2023/02/07 05:16:10;;;;;;;0.30;0.30;;;;;;;-2.49;70.37;98460.19;4965712;28;20137;-57
2023/02/07 05:18:37;;;;;;;0.40;0.40;;;;;;;-2.54;67.99;98458.25;4965908;28;20109;-57
2023/02/07 05:21:03;;;;;;;0.50;0.50;;;;;;;-2.49;68.35;98457.47;4966143;28;20173;-56
2023/02/07 05:23:30;;;;;;;0.85;0.77;;;;;;;-2.62;66.13;98455.97;4965831;28;20162;-57
2023/02/07 05:25:57;;;;;;;2.15;2.05;;;;;;;-2.60;67.28;98464.69;4965515;28;20054;-57
2023/02/07 05:28:23;;;;;;;0.20;0.20;;;;;;;-2.96;66.10;98383.97;4965734;28;20058;-57
2023/02/07 05:30:55;;;;;;;2.72;1.38;;;;;;;-2.47;65.59;98469.72;4964882;28;20146;-58
2023/02/07 05:33:21;;;;;;;3.20;1.38;;;;;;;-2.57;64.78;98464.16;4964426;28;20073;-57
2023/02/07 05:35:48;;;;;;;0.63;0.60;;;;;;;-2.74;65.17;98465.28;4965827;28;20062;-57
2023/02/07 05:38:17;;;;;;;0.88;0.88;;;;;;;-2.82;66.04;98461.13;4965764;28;20086;-57
2023/02/07 05:40:44;;;;;;;2.13;1.00;;;;;;;-2.80;66.58;98464.41;4964310;28;20100;-57
2023/02/07 05:43:12;;;;;;;2.40;1.27;;;;;;;-3.28;66.96;98407.34;4966518;28;20102;-57
2023/02/07 05:45:39;;;;;;;0.30;0.30;;;;;;;-2.54;67.32;98469.09;4976011;28;20865;-57
2023/02/07 05:48:07;;;;;;;3.65;1.48;;;;;;;-2.37;66.85;98469.84;4982460;28;20077;-54
2023/02/07 05:50:34;;;;;;;3.03;1.73;;;;;;;-2.48;65.51;98467.28;4984931;28;20061;-55
2023/02/07 05:53:01;;;;;;;0.68;0.63;;;;;;;-3.09;67.42;98373.47;4984695;28;20129;-57
2023/02/07 05:55:28;;;;;;;4.90;1.23;;;;;;;-2.67;65.89;98466.75;4982962;28;20062;-55
2023/02/07 05:57:54;;;;;;;4.15;2.03;;;;;;;-2.68;65.74;98451.56;4984117;28;20050;-54
2023/02/07 06:00:21;;;;;;;0.30;0.30;;;;;;;-3.55;67.45;98314.31;4983526;28;20493;-56
2023/02/07 06:02:48;;;;;;;10.32;3.15;;;;;;;-3.57;66.27;98343.53;4984252;28;20101;-54
2023/02/07 06:05:17;;;;;;;0.90;0.73;;;;;;;-2.80;66.87;98466.28;4984249;28;20065;-54
2023/02/07 06:07:43;;;;;;;1.38;1.00;;;;;;;-3.31;66.45;98397.84;4984332;28;20054;-56
2023/02/07 06:10:11;;;;;;;0.40;0.40;;;;;;;-2.81;67.30;98468.19;4983090;28;20092;-56
2023/02/07 06:12:38;;;;;;;4.45;1.63;;;;;;;-2.95;66.78;98466.91;4984263;28;20193;-56
2023/02/07 06:15:05;;;;;;;0.35;0.35;;;;;;;-2.75;67.32;98461.75;4983197;28;20120;-55
2023/02/07 06:17:32;;;;;;;0.40;0.40;;;;;;;-3.52;66.64;98336.31;4984252;28;20065;-53
2023/02/07 06:19:58;;;;;;;1.10;0.75;;;;;;;-3.25;67.16;98390.59;4984460;28;20109;-55
2023/02/07 06:22:25;;;;;;;5.63;2.47;;;;;;;-3.02;67.00;98416.66;4984018;28;20061;-55
2023/02/07 06:24:52;;;;;;;0.73;0.73;;;;;;;-2.54;66.30;98458.25;4977128;28;20081;-54
2023/02/07 06:27:19;;;;;;;1.92;0.65;;;;;;;-2.35;66.03;98462.28;4997591;28;20051;-56
2023/02/07 06:29:46;;;;;;;2.92;1.65;;;;;;;-2.31;65.81;98449.81;4983140;28;20124;-53
2023/02/07 06:32:12;;;;;;;1.95;1.15;;;;;;;-2.31;65.60;98457.97;4984617;28;20065;-54
2023/02/07 06:34:39;;;;;;;0.30;0.30;;;;;;;-2.27;65.99;98469.97;4984333;28;20054;-56
2023/02/07 06:37:06;;;;;;;2.97;1.83;;;;;;;-2.37;65.76;98459.00;4984281;28;20113;-53
2023/02/07 06:39:32;;;;;;;4.80;1.90;;;;;;;-2.43;67.09;98460.00;4984009;28;20054;-54
2023/02/07 06:41:59;;;;;;;5.95;2.38;;;;;;;-2.22;65.58;98456.47;4984932;28;20078;-55
2023/02/07 06:44:25;;;;;;;2.30;1.23;;;;;;;-2.79;65.54;98411.00;4988325;28;20133;-54
2023/02/07 06:46:52;;;;;;;5.47;2.08;;;;;;;-2.70;64.77;98387.81;4988136;28;20122;-57
2023/02/07 06:49:19;;;;;;;0.30;0.30;;;;;;;-2.24;64.40;98446.94;4987874;28;20053;-57
2023/02/07 06:51:45;;;;;;;2.67;1.27;;;;;;;-2.38;64.75;98419.38;4987940;28;20086;-56
2023/02/07 06:54:12;;;;;;;7.18;3.22;;;;;;;-2.19;64.59;98458.66;4988102;28;20588;-55
2023/02/07 06:56:39;;;;;;;2.22;0.98;;;;;;;-2.15;64.67;98467.94;4988351;28;20112;-55
2023/02/07 06:59:05;;;;;;;6.63;2.40;;;;;;;-2.27;65.08;98458.28;4986642;28;20470;-56
2023/02/07 07:01:32;;;;;;;5.90;1.63;;;;;;;-2.21;65.40;98460.81;4986696;28;20529;-55
2023/02/07 07:03:59;;;;;;;2.30;1.63;;;;;;;-2.03;65.12;98454.22;4984943;28;20857;-53
2023/02/07 07:06:25;;;;;;;4.80;2.22;;;;;;;-2.04;63.91;98453.41;4986017;28;20065;-56
2023/02/07 07:08:52;;;;;;;5.75;1.85;;;;;;;-2.43;64.13;98384.06;4987233;28;20088;-57
2023/02/07 07:11:19;;;;;;;0.80;0.40;;;;;;;-1.98;64.94;98449.69;4986487;28;20108;-56
2023/02/07 07:13:46;;;;;;;3.03;1.88;;;;;;;-1.84;63.26;98450.91;4985971;28;20062;-56
2023/02/07 07:16:13;;;;;;;1.45;0.82;;;;;;;-1.70;62.85;98454.84;4987735;28;20203;-57
2023/02/07 07:18:40;;;;;;;5.63;1.27;;;;;;;-1.67;62.55;98420.91;4986190;28;20046;-56
2023/02/07 07:21:07;;;;;;;3.13;1.30;;;;;;;-1.30;61.37;98445.38;4985787;28;20053;-55
2023/02/07 07:23:34;;;;;;;0.50;0.50;;;;;;;-1.27;61.68;98440.25;4985559;28;20054;-54
2023/02/07 07:26:01;;;;;;;3.15;1.83;;;;;;;-1.21;61.15;98454.69;4985701;28;20084;-57
2023/02/07 07:28:27;;;;;;;2.65;1.42;;;;;;;-1.46;61.44;98381.13;4985364;28;20482;-57
2023/02/07 07:30:54;;;;;;;1.65;1.00;;;;;;;-0.63;60.10;98449.06;4985400;28;20058;-58
2023/02/07 07:33:21;;;;;;;3.50;0.77;;;;;;;-0.39;59.07;98401.28;4985750;28;20050;-54
2023/02/07 07:35:47;;;;;;;2.97;1.02;;;;;;;-0.60;59.04;98361.50;4986173;28;20054;-57
2023/02/07 07:38:14;;;;;;;4.75;2.28;;;;;;;-1.22;59.84;98429.44;4987376;28;20058;-57
2023/02/07 07:40:41;;;;;;;0.93;0.93;;;;;;;-0.96;60.87;98460.31;4987278;28;20082;-56
2023/02/07 07:43:07;;;;;;;0.30;0.30;;;;;;;-0.94;59.73;98441.84;4987922;28;20481;-53
2023/02/07 07:45:34;;;;;;;0.65;0.50;;;;;;;-0.79;58.00;98365.78;4987177;28;20046;-58
2023/02/07 07:48:00;;;;;;;0.30;0.30;;;;;;;0.05;55.67;98424.28;4987952;28;20046;-58
2023/02/07 07:50:27;;;;;;;2.35;1.05;;;;;;;0.06;53.55;98447.72;4987044;28;20088;-54
2023/02/07 07:52:54;;;;;;;3.30;1.23;;;;;;;-0.33;49.23;98460.09;4987196;28;20947;-54
2023/02/07 07:55:20;;;;;;;0.30;0.30;;;;;;;-0.27;48.91;98442.72;4984526;28;20093;-58
2023/02/07 07:57:47;;;;;;;0.30;0.30;;;;;;;-0.12;47.65;98445.50;4985893;28;20599;-54
2023/02/07 08:00:14;;;;;;;1.23;1.13;;;;;;;-0.48;51.92;98462.78;4986642;28;20599;-56
2023/02/07 08:02:42;;;;;;;0.30;0.30;;;;;;;-0.91;54.71;98408.69;4987048;28;20054;-53
2023/02/07 08:05:08;;;;;;;2.75;1.00;;;;;;;-0.26;53.84;98445.19;4986555;28;20105;-58
2023/02/07 08:07:40;;;;;;;0.63;0.55;;;;;;;0.11;52.18;98439.59;4986922;28;20493;-58
2023/02/07 08:10:07;;;;;;;1.40;1.30;;;;;;;0.44;51.39;98428.19;4986690;28;20073;-56
2023/02/07 08:12:33;;;;;;;0.65;0.55;;;;;;;0.43;50.87;98431.97;4985151;28;20047;-58
2023/02/07 08:15:00;;;;;;;3.65;1.92;;;;;;;-0.14;51.40;98458.53;4986485;28;20595;-55
2023/02/07 08:17:27;;;;;;;2.40;1.17;;;;;;;-0.07;50.53;98443.63;4986537;28;20604;-57
2023/02/07 08:19:53;;;;;;;0.63;0.63;;;;;;;-0.05;50.72;98446.06;4984746;28;20582;-57
2023/02/07 08:22:20;;;;;;;0.25;0.25;;;;;;;-0.06;51.41;98417.19;4986813;28;20154;-54
2023/02/07 08:24:47;;;;;;;0.30;0.30;;;;;;;-0.69;49.74;98360.38;4986843;28;20050;-56
2023/02/07 08:27:13;;;;;;;0.70;0.70;;;;;;;0.17;49.69;98437.66;4986261;28;20050;-55
2023/02/07 08:29:40;;;;;;;3.30;0.85;;;;;;;-0.16;50.61;98438.97;4986826;28;20407;-55
2023/02/07 08:32:07;;;;;;;3.75;0.70;;;;;;;-0.16;49.58;98433.50;4985176;28;20073;-57
2023/02/07 08:34:36;;;;;;;0.65;0.65;;;;;;;-0.08;50.05;98441.16;4986062;28;20046;-57
2023/02/07 08:37:04;;;;;;;0.30;0.30;;;;;;;0.14;49.81;98444.50;4985340;28;20061;-56
2023/02/07 08:39:33;;;;;;;2.38;0.95;;;;;;;0.24;50.11;98436.31;4985143;28;20046;-57
2023/02/07 08:41:59;;;;;;;0.73;0.60;;;;;;;-0.31;49.23;98349.06;4986425;28;20069;-54
2023/02/07 08:44:26;;;;;;;0.60;0.60;;;;;;;0.01;48.78;98455.88;4986446;28;20050;-56
2023/02/07 08:46:53;;;;;;;0.70;0.70;;;;;;;0.73;47.00;98437.44;4986159;28;20050;-56
2023/02/07 08:49:20;;;;;;;2.63;1.80;;;;;;;0.99;46.81;98428.16;4986389;28;20372;-56
2023/02/07 08:51:46;;;;;;;0.30;0.30;;;;;;;1.07;46.22;98394.88;4984622;28;20477;-58
2023/02/07 08:54:13;;;;;;;0.40;0.40;;;;;;;0.91;45.64;98428.72;4985695;28;20059;-55
2023/02/07 08:56:40;;;;;;;6.22;1.80;;;;;;;0.84;43.94;98428.16;4985694;28;20048;-58
2023/02/07 08:59:06;;;;;;;0.60;0.60;;;;;;;1.09;45.03;98428.13;4985871;28;20153;-58
2023/02/07 09:01:33;;;;;;;1.77;0.93;;;;;;;0.59;46.45;98413.72;4985282;28;20081;-55
2023/02/07 09:04:00;;;;;;;4.78;4.35;;;;;;;1.29;46.41;98425.38;4985910;28;20046;-57
2023/02/07 09:06:27;;;;;;;3.88;1.27;;;;;;;0.39;46.20;98430.91;4984883;28;20304;-57
2023/02/07 09:08:54;;;;;;;4.22;2.10;;;;;;;0.81;47.59;98434.16;4985539;28;20334;-56
2023/02/07 09:11:21;;;;;;;4.13;1.58;;;;;;;1.04;47.43;98430.84;4984180;28;20370;-56
2023/02/07 09:13:48;;;;;;;2.22;1.20;;;;;;;0.69;46.75;98425.47;4985334;28;20537;-58
2023/02/07 09:16:14;;;;;;;4.50;2.38;;;;;;;0.24;48.10;98400.91;4985266;28;20091;-57
2023/02/07 09:18:41;;;;;;;1.33;0.95;;;;;;;0.02;47.98;98445.81;4985701;28;20522;-56
2023/02/07 09:21:08;;;;;;;0.30;0.30;;;;;;;0.46;47.14;98425.97;4985340;28;20136;-58
2023/02/07 09:23:35;;;;;;;2.35;1.17;;;;;;;0.27;47.41;98424.88;4985618;28;20082;-56
2023/02/07 09:26:04;;;;;;;0.30;0.30;;;;;;;0.89;47.97;98414.53;4985165;28;20121;-57
2023/02/07 09:28:31;;;;;;;2.28;1.40;;;;;;;1.07;44.90;98394.88;4985615;28;20477;-56
2023/02/07 09:30:57;;;;;;;3.20;1.42;;;;;;;0.84;45.60;98411.78;4984883;28;20552;-56
2023/02/07 09:33:24;;;;;;;4.53;1.75;;;;;;;0.22;45.60;98354.06;4985496;28;20054;-55
2023/02/07 09:35:52;;;;;;;0.63;0.63;;;;;;;0.65;45.73;98451.63;4984993;28;20245;-56
2023/02/07 09:38:22;;;;;;;3.30;1.13;;;;;;;0.64;46.39;98373.66;4983688;28;20065;-58
2023/02/07 09:40:50;;;;;;;3.13;1.60;;;;;;;0.55;45.93;98408.00;4983427;28;20597;-56
2023/02/07 09:44:03;;;;;;;2.28;1.63;;;;;;;0.24;46.48;98389.19;4983133;28;20437;-59
2023/02/07 09:46:42;;;;;;;2.50;1.45;;;;;;;0.85;45.84;98418.91;4985069;28;20489;-57
2023/02/07 09:49:14;;;;;;;6.00;1.88;;;;;;;0.79;46.24;98409.06;4983502;28;20102;-55
2023/02/07 09:51:42;;;;;;;1.75;1.00;;;;;;;0.81;47.49;98406.91;4984042;28;20050;-58
2023/02/07 09:54:26;;;;;;;4.53;1.00;;;;;;;0.84;47.51;98395.44;4983604;28;20520;-56
2023/02/07 09:56:56;;;;;;;1.42;1.25;;;;;;;0.82;45.81;98386.69;4984775;28;20510;-55
2023/02/07 09:59:44;;;;;;;1.38;1.02;;;;;;;0.66;46.17;98376.94;4984905;28;20042;-55
2023/02/07 10:02:20;;;;;;;0.40;0.40;;;;;;;0.51;46.51;98319.69;4983046;28;20133;-56
2023/02/07 10:04:48;;;;;;;2.75;1.50;;;;;;;-0.17;47.50;98252.16;4984973;28;20058;-57
2023/02/07 10:07:15;;;;;;;1.85;1.75;;;;;;;1.00;47.88;98388.88;4984601;28;20120;-57
2023/02/07 10:09:44;;;;;;;5.38;1.45;;;;;;;0.86;46.32;98381.53;4984920;28;20568;-57
2023/02/07 10:12:35;;;;;;;2.08;1.05;;;;;;;1.32;45.45;98381.13;4984405;28;20085;-57
2023/02/07 10:15:35;;;;;;;2.17;1.27;;;;;;;1.12;46.51;98381.19;4984858;28;20359;-56
2023/02/07 10:18:11;;;;;;;1.45;1.08;;;;;;;1.24;46.13;98376.25;4982717;28;20046;-56
2023/02/07 10:20:53;;;;;;;0.75;0.73;;;;;;;1.51;42.88;98379.44;4982904;28;20140;-56
2023/02/07 10:23:39;;;;;;;0.32;0.32;;;;;;;1.69;43.31;98374.44;4984976;28;20461;-58
2023/02/07 10:26:35;;;;;;;4.25;1.75;;;;;;;1.04;44.61;98357.19;4984257;28;20513;-59
2023/02/07 10:29:12;;;;;;;5.32;1.40;;;;;;;1.37;44.92;98367.47;4985118;28;20058;-59
2023/02/07 10:31:45;;;;;;;0.63;0.63;;;;;;;1.20;44.10;98347.88;4982669;28;20136;-59
2023/02/07 10:34:24;;;;;;;0.40;0.40;;;;;;;1.67;44.30;98360.22;4983064;28;20120;-58
2023/02/07 10:36:55;;;;;;;2.83;1.38;;;;;;;0.96;43.96;98308.69;4984067;28;20050;-56
2023/02/07 10:39:40;;;;;;;3.38;1.88;;;;;;;1.02;44.91;98314.94;4983606;28;20390;-56
2023/02/07 10:42:15;;;;;;;8.32;1.52;;;;;;;1.22;46.24;98342.97;4984239;28;20061;-58
2023/02/07 10:44:42;;;;;;;0.50;0.50;;;;;;;1.19;45.67;98338.06;4985026;28;20109;-57
2023/02/07 10:47:16;;;;;;;4.15;1.45;;;;;;;0.83;47.12;98342.00;4984123;28;20553;-56
2023/02/07 10:49:47;;;;;;;3.28;2.97;;;;;;;-0.07;49.39;98235.84;4983419;28;20050;-56
2023/02/07 10:52:16;;;;;;;3.05;1.83;;;;;;;0.78;48.89;98339.28;4984038;28;20058;-55
2023/02/07 10:54:52;;;;;;;4.75;2.15;;;;;;;0.42;50.95;98337.69;4984492;28;20141;-58
2023/02/07 10:57:20;;;;;;;6.15;2.30;;;;;;;0.21;51.93;98352.41;4983945;28;20058;-55
2023/02/07 10:59:49;;;;;;;4.72;1.75;;;;;;;0.35;50.88;98356.22;4984041;28;20086;-57
2023/02/07 11:02:31;;;;;;;4.32;2.25;;;;;;;0.39;51.05;98327.34;4982834;28;20089;-56
2023/02/07 11:04:57;;;;;;;4.75;1.70;;;;;;;0.74;49.79;98340.09;4983935;28;20062;-56
2023/02/07 11:07:25;;;;;;;3.03;1.50;;;;;;;0.13;48.47;98279.38;4982691;28;20094;-59
2023/02/07 11:10:17;;;;;;;3.28;1.27;;;;;;;0.74;48.07;98335.47;4984450;28;20143;-58
2023/02/07 11:12:52;;;;;;;6.03;2.15;;;;;;;1.15;47.77;98325.25;4983988;28;20062;-56
2023/02/07 11:15:22;;;;;;;0.30;0.30;;;;;;;1.32;47.08;98332.00;4984388;28;20054;-59
2023/02/07 11:17:53;;;;;;;1.38;1.08;;;;;;;1.22;44.43;98250.19;4982754;28;20445;-55
2023/02/07 11:20:37;;;;;;;0.30;0.30;;;;;;;1.89;42.29;98325.13;4982799;28;20628;-56
2023/02/07 11:23:10;;;;;;;1.80;1.38;;;;;;;1.53;42.71;98262.53;4973759;28;20047;-57
2023/02/07 11:25:43;;;;;;;5.20;2.45;;;;;;;1.30;41.74;98241.41;4965043;28;20050;-58
2023/02/07 11:28:22;;;;;;;3.50;1.35;;;;;;;2.20;43.42;98326.53;4973410;28;20055;-57
2023/02/07 11:31:01;;;;;;;0.57;0.57;;;;;;;1.83;45.15;98323.53;4988058;28;20086;-57
2023/02/07 11:33:32;;;;;;;2.08;1.33;;;;;;;2.17;43.83;98321.66;4987713;28;20046;-56
2023/02/07 11:36:04;;;;;;;1.83;0.57;;;;;;;2.36;43.02;98306.19;4987127;28;20489;-60
2023/02/07 11:38:39;;;;;;;1.10;1.00;;;;;;;1.89;42.71;98311.47;4987304;28;20082;-61
2023/02/07 11:41:20;;;;;;;1.17;0.60;;;;;;;2.04;42.65;98300.47;4987293;28;20058;-57
2023/02/07 11:43:59;;;;;;;0.30;0.30;;;;;;;2.18;41.68;98246.78;4987109;28;20412;-60
2023/02/07 11:46:33;;;;;;;0.40;0.40;;;;;;;2.34;42.43;98303.75;4986579;28;20707;-59
2023/02/07 11:49:01;;;;;;;1.88;1.45;;;;;;;2.05;41.59;98308.38;4985651;28;20062;-58
2023/02/07 11:51:31;;;;;;;0.47;0.47;;;;;;;2.34;41.65;98311.16;4987206;28;20058;-58